Trine Charlotte — LMRY — position and weather

sailwx.info

Track history (hours):
 
Tides and Currents Weather Stations Pressure Air Temp Water Temp Dewpoint Dewpoint Depression Visibility Wind Speed Wind Dir Waves Ship Positions

Trine Charlotte

Last reported at 2016-Jun-22 11:32 UTC. Time now 2016-Jun-25 19:47 UTC.
Position N 67°31' E 014°29'.

Length 66 m; draft 5 m.

Type: Cargo ship. MMSI: 257233000.

Date/timePositionNaut miles runAvg speedWind from/ knotsBaromVisibWave heightAir tempDewpointWater temp
2016-Jun-22 11:32N 67°31' E 014°29'10 9.8
2016-Jun-22 10:33N 67°21' E 014°23'7 7.1
2016-Jun-22 09:33N 67°15' E 014°19'9 8.9
2016-Jun-22 08:33N 67°17' E 014°40'1 1.2
2016-Jun-22 07:32N 67°18' E 014°43'0 0.0
2016-Jun-22 06:29N 67°18' E 014°43'0 0.0
2016-Jun-22 05:33N 67°18' E 014°43'0 0.0
2016-Jun-22 04:33N 67°18' E 014°43'0 0.0
2016-Jun-22 03:33N 67°18' E 014°43'0 0.0
2016-Jun-22 02:33N 67°18' E 014°43'0 0.0
2016-Jun-22 01:33N 67°18' E 014°43'0 0.0
2016-Jun-22 00:33N 67°18' E 014°43'0 0.0
2016-Jun-21 23:33N 67°18' E 014°43'0 0.0
2016-Jun-21 22:33N 67°18' E 014°43'0 0.0
2016-Jun-21 21:33N 67°18' E 014°43'0 0.0
2016-Jun-21 20:33N 67°18' E 014°43'0 0.0
2016-Jun-21 19:33N 67°18' E 014°43'0 0.0
2016-Jun-21 18:28N 67°18' E 014°43'0 0.0
2016-Jun-21 17:32N 67°18' E 014°43'0 0.0
2016-Jun-21 16:27N 67°18' E 014°43'0 0.0
2016-Jun-21 15:33N 67°18' E 014°43'0 0.0
2016-Jun-21 14:33N 67°18' E 014°43'0 0.0
2016-Jun-21 13:33N 67°18' E 014°43'0 0.0
2016-Jun-21 12:33N 67°18' E 014°43'6 5.9
2016-Jun-21 11:33N 67°16' E 014°29'6 5.6
2016-Jun-21 10:33N 67°18' E 014°17'9 8.7
2016-Jun-21 09:33N 67°26' E 014°27'9 8.7
2016-Jun-21 08:33N 67°35' E 014°30'9 8.7
2016-Jun-21 07:33N 67°43' E 014°31'10 8.6
2016-Jun-21 06:24N 67°52' E 014°43'95 8.7
2016-Jun-20 19:29N 69°06' E 017°28'8 9.1
2016-Jun-20 18:33N 69°09' E 017°49'7 6.6
2016-Jun-20 17:33N 69°15' E 017°58'  
Track history (hours):
 
Tides and Currents Weather Stations Pressure Air Temp Water Temp Dewpoint Dewpoint Depression Visibility Wind Speed Wind Dir Waves Ship Positions

Trine Charlotte

Last reported at 2016-Jun-22 11:32 UTC. Time now 2016-Jun-25 19:47 UTC.
Position N 67°31' E 014°29'.

Length 66 m; draft 5 m.

Type: Cargo ship. MMSI: 257233000.

Date/timePositionNaut miles runAvg speedWind from/ knotsBaromVisibWave heightAir tempDewpointWater temp
2016-Jun-22 11:32N 67°31' E 014°29'10 9.8
2016-Jun-22 10:33N 67°21' E 014°23'7 7.1
2016-Jun-22 09:33N 67°15' E 014°19'9 8.9
2016-Jun-22 08:33N 67°17' E 014°40'1 1.2
2016-Jun-22 07:32N 67°18' E 014°43'0 0.0
2016-Jun-22 06:29N 67°18' E 014°43'0 0.0
2016-Jun-22 05:33N 67°18' E 014°43'0 0.0
2016-Jun-22 04:33N 67°18' E 014°43'0 0.0
2016-Jun-22 03:33N 67°18' E 014°43'0 0.0
2016-Jun-22 02:33N 67°18' E 014°43'0 0.0
2016-Jun-22 01:33N 67°18' E 014°43'0 0.0
2016-Jun-22 00:33N 67°18' E 014°43'0 0.0
2016-Jun-21 23:33N 67°18' E 014°43'0 0.0
2016-Jun-21 22:33N 67°18' E 014°43'0 0.0
2016-Jun-21 21:33N 67°18' E 014°43'0 0.0
2016-Jun-21 20:33N 67°18' E 014°43'0 0.0
2016-Jun-21 19:33N 67°18' E 014°43'0 0.0
2016-Jun-21 18:28N 67°18' E 014°43'0 0.0
2016-Jun-21 17:32N 67°18' E 014°43'0 0.0
2016-Jun-21 16:27N 67°18' E 014°43'0 0.0
2016-Jun-21 15:33N 67°18' E 014°43'0 0.0
2016-Jun-21 14:33N 67°18' E 014°43'0 0.0
2016-Jun-21 13:33N 67°18' E 014°43'0 0.0
2016-Jun-21 12:33N 67°18' E 014°43'6 5.9
2016-Jun-21 11:33N 67°16' E 014°29'6 5.6
2016-Jun-21 10:33N 67°18' E 014°17'9 8.7
2016-Jun-21 09:33N 67°26' E 014°27'9 8.7
2016-Jun-21 08:33N 67°35' E 014°30'9 8.7
2016-Jun-21 07:33N 67°43' E 014°31'10 8.6
2016-Jun-21 06:24N 67°52' E 014°43'95 8.7
2016-Jun-20 19:29N 69°06' E 017°28'8 9.1
2016-Jun-20 18:33N 69°09' E 017°49'7 6.6
2016-Jun-20 17:33N 69°15' E 017°58'  

Dump ship's entire track history